createdAt,value
2019-02-11T00:02:48.733Z,7.39
2019-02-11T00:07:51.634Z,7.28
2019-02-11T00:12:54.095Z,7.12
2019-02-11T00:17:57.377Z,6.95
2019-02-11T00:22:59.663Z,6.91
2019-02-11T00:28:02.540Z,6.84
2019-02-11T00:33:04.793Z,6.71
2019-02-11T00:38:07.526Z,6.73
2019-02-11T00:43:18.705Z,6.58
2019-02-11T00:48:15.545Z,6.41
2019-02-11T00:53:18.093Z,6.42
2019-02-11T00:58:20.526Z,6.26
2019-02-11T01:03:22.779Z,6.23
2019-02-11T01:08:25.033Z,6.11
2019-02-11T01:13:28.180Z,6.09
2019-02-11T01:18:31.246Z,6.20
2019-02-11T01:23:34.078Z,6.07
2019-02-11T01:28:37.460Z,5.89
2019-02-11T01:33:40.772Z,5.68
2019-02-11T01:38:43.524Z,5.50
2019-02-11T01:43:45.827Z,5.36
2019-02-11T01:48:48.837Z,5.01
2019-02-11T01:53:51.825Z,4.89
2019-02-11T01:58:54.893Z,4.76
2019-02-11T02:03:57.933Z,4.62
2019-02-11T02:09:00.195Z,4.52
2019-02-11T02:14:02.472Z,4.43
2019-02-11T02:19:04.989Z,4.37
2019-02-11T02:24:07.315Z,4.41
2019-02-11T02:29:09.525Z,4.41
2019-02-11T02:34:11.772Z,4.41
2019-02-11T02:39:15.031Z,4.38
2019-02-11T02:44:18.072Z,4.34
2019-02-11T02:49:20.804Z,4.27
2019-02-11T02:54:25.010Z,4.16
2019-02-11T02:59:27.562Z,4.04
2019-02-11T03:04:30.527Z,3.98
2019-02-11T03:09:34.805Z,3.89
2019-02-11T03:14:37.336Z,3.88
2019-02-11T03:19:39.550Z,3.87
2019-02-11T03:24:41.842Z,3.85
2019-02-11T03:29:44.998Z,3.85
2019-02-11T03:34:48.099Z,3.84
2019-02-11T03:39:50.347Z,3.85
2019-02-11T03:44:53.406Z,3.91
2019-02-11T03:49:56.651Z,3.97
2019-02-11T03:54:59.584Z,4.01
2019-02-11T04:00:02.261Z,4.11
2019-02-11T04:05:06.524Z,4.18
2019-02-11T04:10:09.368Z,4.24
2019-02-11T04:15:12.223Z,4.32
2019-02-11T04:20:14.791Z,4.41
2019-02-11T04:25:17.110Z,4.47
2019-02-11T04:30:20.421Z,4.53
2019-02-11T04:35:23.831Z,4.61
2019-02-11T04:40:26.257Z,4.69
2019-02-11T04:45:29.285Z,4.76
2019-02-11T04:50:32.299Z,4.81
2019-02-11T04:55:35.376Z,4.84
2019-02-11T05:00:38.137Z,4.88
2019-02-11T05:05:40.914Z,4.90
2019-02-11T05:10:43.703Z,4.90
2019-02-11T05:15:47.571Z,4.91
2019-02-11T05:20:50.118Z,4.94
2019-02-11T05:25:52.353Z,4.94
2019-02-11T05:30:55.549Z,4.97
2019-02-11T05:35:58.910Z,5.03
2019-02-11T05:41:01.605Z,5.00
2019-02-11T05:46:04.259Z,5.04
2019-02-11T05:51:06.854Z,5.05
2019-02-11T05:56:09.963Z,5.05
2019-02-11T06:01:12.222Z,5.06
2019-02-11T06:06:15.525Z,5.06
2019-02-11T06:11:17.832Z,5.11
2019-02-11T06:16:20.625Z,5.09
2019-02-11T06:21:23.226Z,5.14
2019-02-11T06:26:25.401Z,5.17
2019-02-11T06:31:28.205Z,5.19
2019-02-11T06:36:30.553Z,5.20
2019-02-11T06:41:33.049Z,5.23
2019-02-11T06:46:36.127Z,5.25
2019-02-11T06:51:38.922Z,5.27
2019-02-11T06:56:41.244Z,5.28
2019-02-11T07:01:44.316Z,5.31
2019-02-11T07:06:46.608Z,5.34
2019-02-11T07:11:49.577Z,5.39
2019-02-11T07:16:51.939Z,5.40
2019-02-11T07:21:54.168Z,5.42
2019-02-11T07:26:56.842Z,5.45
2019-02-11T07:32:01.589Z,5.47
2019-02-11T07:37:04.092Z,5.49
2019-02-11T07:42:28.619Z,5.53
2019-02-11T07:47:31.005Z,5.54
2019-02-11T07:52:33.463Z,5.62
2019-02-11T07:57:36.072Z,5.70
2019-02-11T08:02:38.355Z,5.71
2019-02-11T08:13:11.975Z,5.66
2019-02-11T08:18:15.143Z,5.70
2019-02-11T08:23:18.086Z,5.73
2019-02-11T08:28:20.840Z,5.77
2019-02-11T08:33:23.639Z,5.84
2019-02-11T08:38:26.729Z,5.89
2019-02-11T08:43:29.098Z,5.93
2019-02-11T08:48:31.828Z,5.98
2019-02-11T08:53:34.308Z,6.00
2019-02-11T08:58:36.828Z,6.02
2019-02-11T09:03:41.272Z,6.04
2019-02-11T09:08:44.448Z,6.06
2019-02-11T09:13:46.611Z,6.04
2019-02-11T09:18:48.799Z,6.00
2019-02-11T09:23:51.532Z,6.05
2019-02-11T09:28:53.813Z,6.06
2019-02-11T09:33:55.962Z,6.08
2019-02-11T09:38:58.368Z,6.16
2019-02-11T09:44:00.555Z,6.20
2019-02-11T09:49:03.363Z,6.21
2019-02-11T09:54:06.264Z,6.28
2019-02-11T09:59:09.172Z,6.32
2019-02-11T10:04:11.342Z,6.43
2019-02-11T10:09:13.968Z,6.45
2019-02-11T10:14:16.784Z,6.45
2019-02-11T10:19:19.100Z,6.54
2019-02-11T10:24:22.961Z,6.59
2019-02-11T10:29:25.160Z,6.63
2019-02-11T10:34:27.306Z,6.70
2019-02-11T10:39:29.538Z,6.92
2019-02-11T10:44:32.076Z,7.13
2019-02-11T10:49:34.351Z,7.21
2019-02-11T10:54:36.619Z,7.29
2019-02-11T10:59:39.120Z,7.24
2019-02-11T11:04:41.653Z,7.26
2019-02-11T11:09:44.104Z,7.30
2019-02-11T11:14:46.618Z,7.31
2019-02-11T11:19:49.525Z,7.42
2019-02-11T11:24:52.120Z,7.44
2019-02-11T11:29:55.405Z,7.49
2019-02-11T11:34:58.908Z,7.58
2019-02-11T11:40:01.970Z,7.63
2019-02-11T11:45:08.635Z,7.60
2019-02-11T11:50:11.795Z,7.51
2019-02-11T11:55:15.193Z,7.51
2019-02-11T12:00:23.981Z,7.47
2019-02-11T12:05:26.598Z,7.45
2019-02-11T12:10:29.159Z,7.48
2019-02-11T12:15:31.455Z,7.48
2019-02-11T12:20:34.465Z,7.49
2019-02-11T12:25:36.872Z,7.62
2019-02-11T12:30:39.548Z,7.73
2019-02-11T12:35:41.720Z,7.72
2019-02-11T12:40:43.863Z,7.66
2019-02-11T12:45:46.910Z,7.77
2019-02-11T12:50:49.385Z,8.60
2019-02-11T12:55:52.040Z,9.04
2019-02-11T13:00:54.239Z,9.53
2019-02-11T13:05:57.657Z,9.38
2019-02-11T13:11:00.480Z,9.00
2019-02-11T13:16:03.486Z,8.74
2019-02-11T13:21:07.042Z,8.75
2019-02-11T13:26:09.261Z,8.65
2019-02-11T13:31:11.843Z,8.77
2019-02-11T13:36:14.396Z,8.72
2019-02-11T13:41:17.011Z,8.59
2019-02-11T13:46:19.719Z,8.56
2019-02-11T13:51:22.000Z,8.54
2019-02-11T13:56:25.132Z,8.68
2019-02-11T14:01:28.117Z,8.78
2019-02-11T14:06:30.573Z,8.75
2019-02-11T14:11:32.758Z,8.73
2019-02-11T14:16:34.953Z,8.88
2019-02-11T14:21:37.428Z,9.23
2019-02-11T14:26:40.115Z,9.45
2019-02-11T14:31:42.739Z,9.54
2019-02-11T14:36:46.102Z,9.59
2019-02-11T14:41:49.114Z,9.70
2019-02-11T14:46:52.117Z,9.65
2019-02-11T14:51:55.149Z,9.47
2019-02-11T14:56:59.314Z,9.26
2019-02-11T15:02:02.296Z,8.98
2019-02-11T15:07:05.400Z,8.71
2019-02-11T15:12:08.416Z,8.62
2019-02-11T15:17:10.931Z,8.59
2019-02-11T15:22:13.437Z,8.53
2019-02-11T15:27:17.325Z,8.52
2019-02-11T15:32:20.316Z,8.47
2019-02-11T15:37:22.447Z,8.36
2019-02-11T15:42:25.769Z,8.22
2019-02-11T15:47:29.415Z,8.19
2019-02-11T15:52:31.706Z,8.03
2019-02-11T15:57:33.996Z,7.88
2019-02-11T16:02:36.870Z,7.72
2019-02-11T16:07:40.644Z,7.55
2019-02-11T16:12:43.633Z,7.43
2019-02-11T16:17:46.548Z,7.31
2019-02-11T16:22:48.845Z,7.20
2019-02-11T16:27:51.414Z,7.11
2019-02-11T16:32:53.893Z,7.04
2019-02-11T16:37:56.539Z,6.98
2019-02-11T16:42:59.415Z,6.88
2019-02-11T16:48:01.730Z,6.80
2019-02-11T16:53:03.925Z,6.69
2019-02-11T16:58:06.783Z,6.57
2019-02-11T17:03:14.598Z,6.48
2019-02-11T17:08:18.904Z,6.45
2019-02-11T17:13:22.048Z,6.42
2019-02-11T17:18:24.218Z,6.37
2019-02-11T17:23:26.531Z,6.25
2019-02-11T17:28:29.854Z,6.16
2019-02-11T17:33:32.617Z,6.12
2019-02-11T17:38:34.902Z,6.08
2019-02-11T17:43:37.350Z,6.01
2019-02-11T17:48:39.640Z,5.97
2019-02-11T17:53:41.970Z,5.91
2019-02-11T17:58:44.664Z,5.85
2019-02-11T18:03:47.235Z,5.80
2019-02-11T18:08:49.821Z,5.75
2019-02-11T18:13:53.249Z,5.71
2019-02-11T18:18:55.568Z,5.66
2019-02-11T18:23:58.040Z,5.65
2019-02-11T18:29:00.313Z,5.61
2019-02-11T18:34:02.688Z,5.56
2019-02-11T18:39:06.640Z,5.52
2019-02-11T18:44:11.182Z,5.50
2019-02-11T18:49:13.907Z,5.47
2019-02-11T18:54:16.995Z,5.45
2019-02-11T18:59:24.773Z,5.43
2019-02-11T19:04:24.130Z,5.40
2019-02-11T19:09:27.253Z,5.39
2019-02-11T19:14:29.849Z,5.40
2019-02-11T19:19:32.638Z,5.37
2019-02-11T19:24:35.940Z,5.33
2019-02-11T19:29:38.359Z,5.30
2019-02-11T19:34:41.114Z,5.25
2019-02-11T19:39:43.279Z,5.18
2019-02-11T19:44:46.228Z,5.16
2019-02-11T19:49:51.473Z,5.09
2019-02-11T19:54:53.545Z,5.05
2019-02-11T19:59:56.043Z,5.00
2019-02-11T20:04:58.248Z,4.94
2019-02-11T20:10:01.027Z,4.89
2019-02-11T20:15:04.818Z,4.87
2019-02-11T20:20:09.847Z,4.87
2019-02-11T20:25:13.597Z,4.88
2019-02-11T20:30:19.122Z,4.85
2019-02-11T20:35:21.573Z,4.84
2019-02-11T20:40:24.373Z,4.83
2019-02-11T20:45:26.836Z,4.73
2019-02-11T20:50:29.859Z,4.68
2019-02-11T20:55:32.346Z,4.61
2019-02-11T21:00:34.923Z,4.56
2019-02-11T21:05:37.169Z,4.49
2019-02-11T21:10:39.342Z,4.45
2019-02-11T21:15:42.755Z,4.42
2019-02-11T21:20:45.400Z,4.35
2019-02-11T21:25:47.913Z,4.30
2019-02-11T21:30:50.714Z,4.26
2019-02-11T21:35:52.897Z,4.21
2019-02-11T21:40:55.108Z,4.16
2019-02-11T21:45:58.319Z,4.11
2019-02-11T21:51:01.081Z,4.08
2019-02-11T21:56:03.684Z,4.03
2019-02-11T22:01:06.808Z,3.97
2019-02-11T22:06:10.007Z,3.93
2019-02-11T22:11:13.092Z,3.89
2019-02-11T22:16:15.914Z,3.86
2019-02-11T22:21:18.910Z,3.79
2019-02-11T22:26:22.205Z,3.73
2019-02-11T22:31:24.638Z,3.70
2019-02-11T22:36:27.416Z,3.71
2019-02-11T22:41:29.638Z,3.72
2019-02-11T22:46:32.123Z,3.72
2019-02-11T22:51:35.580Z,3.75
2019-02-11T22:56:38.183Z,3.78
2019-02-11T23:01:40.345Z,3.82
2019-02-11T23:06:42.625Z,3.80
2019-02-11T23:11:46.114Z,3.77
2019-02-11T23:16:48.308Z,3.76
2019-02-11T23:21:50.772Z,3.77
2019-02-11T23:26:52.933Z,3.76
2019-02-11T23:31:55.224Z,3.80
2019-02-11T23:36:58.279Z,3.82
2019-02-11T23:42:00.758Z,3.82
2019-02-11T23:47:02.939Z,3.84
2019-02-11T23:52:06.005Z,3.85
2019-02-11T23:57:09.635Z,3.85
